sensor_id;sensor_type;location;lat;lon;timestamp;P1;durP1;ratioP1;P2;durP2;ratioP2
71671;SDS011;62112;45.638;11.714;2022-12-18T00:01:36;5.35;;;2.65;;
71671;SDS011;62112;45.638;11.714;2022-12-18T00:04:06;5.83;;;2.50;;
71671;SDS011;62112;45.638;11.714;2022-12-18T00:06:38;5.60;;;2.50;;
71671;SDS011;62112;45.638;11.714;2022-12-18T00:09:03;5.75;;;2.45;;
71671;SDS011;62112;45.638;11.714;2022-12-18T00:11:30;4.80;;;2.33;;
71671;SDS011;62112;45.638;11.714;2022-12-18T00:13:57;4.57;;;2.30;;
71671;SDS011;62112;45.638;11.714;2022-12-18T00:16:25;7.72;;;2.75;;
71671;SDS011;62112;45.638;11.714;2022-12-18T00:18:52;4.80;;;2.30;;
71671;SDS011;62112;45.638;11.714;2022-12-18T00:21:20;4.90;;;2.33;;
71671;SDS011;62112;45.638;11.714;2022-12-18T00:23:47;4.90;;;2.23;;
71671;SDS011;62112;45.638;11.714;2022-12-18T00:26:15;5.50;;;2.63;;
71671;SDS011;62112;45.638;11.714;2022-12-18T00:28:43;6.10;;;2.60;;
71671;SDS011;62112;45.638;11.714;2022-12-18T00:31:11;5.38;;;2.35;;
71671;SDS011;62112;45.638;11.714;2022-12-18T00:33:38;5.50;;;2.40;;
71671;SDS011;62112;45.638;11.714;2022-12-18T00:36:05;4.83;;;2.20;;
71671;SDS011;62112;45.638;11.714;2022-12-18T00:38:45;4.68;;;2.30;;
71671;SDS011;62112;45.638;11.714;2022-12-18T00:41:12;5.40;;;2.40;;
71671;SDS011;62112;45.638;11.714;2022-12-18T00:43:59;5.15;;;2.33;;
71671;SDS011;62112;45.638;11.714;2022-12-18T00:46:26;5.00;;;2.23;;
71671;SDS011;62112;45.638;11.714;2022-12-18T00:48:52;4.97;;;2.50;;
71671;SDS011;62112;45.638;11.714;2022-12-18T00:51:18;5.07;;;2.38;;
71671;SDS011;62112;45.638;11.714;2022-12-18T00:53:43;4.53;;;2.17;;
71671;SDS011;62112;45.638;11.714;2022-12-18T00:56:09;4.78;;;2.17;;
71671;SDS011;62112;45.638;11.714;2022-12-18T00:58:35;4.57;;;2.05;;
71671;SDS011;62112;45.638;11.714;2022-12-18T01:01:01;4.60;;;2.10;;
71671;SDS011;62112;45.638;11.714;2022-12-18T01:03:28;4.75;;;2.45;;
71671;SDS011;62112;45.638;11.714;2022-12-18T01:05:54;3.97;;;2.10;;
71671;SDS011;62112;45.638;11.714;2022-12-18T01:08:20;4.17;;;2.10;;
71671;SDS011;62112;45.638;11.714;2022-12-18T01:10:46;5.18;;;2.25;;
71671;SDS011;62112;45.638;11.714;2022-12-18T01:13:12;5.28;;;2.25;;
71671;SDS011;62112;45.638;11.714;2022-12-18T01:15:37;4.50;;;2.13;;
71671;SDS011;62112;45.638;11.714;2022-12-18T01:18:05;6.97;;;2.60;;
71671;SDS011;62112;45.638;11.714;2022-12-18T01:20:32;5.47;;;2.63;;
71671;SDS011;62112;45.638;11.714;2022-12-18T01:22:58;4.45;;;2.28;;
71671;SDS011;62112;45.638;11.714;2022-12-18T01:25:24;4.73;;;2.40;;
71671;SDS011;62112;45.638;11.714;2022-12-18T01:27:50;4.35;;;2.15;;
71671;SDS011;62112;45.638;11.714;2022-12-18T01:30:15;5.03;;;2.30;;
71671;SDS011;62112;45.638;11.714;2022-12-18T01:32:41;4.77;;;2.40;;
71671;SDS011;62112;45.638;11.714;2022-12-18T01:35:07;5.13;;;2.30;;
71671;SDS011;62112;45.638;11.714;2022-12-18T01:37:33;4.88;;;2.30;;
71671;SDS011;62112;45.638;11.714;2022-12-18T01:39:59;4.07;;;1.97;;
71671;SDS011;62112;45.638;11.714;2022-12-18T01:42:25;5.38;;;2.30;;
71671;SDS011;62112;45.638;11.714;2022-12-18T01:44:55;4.57;;;2.08;;
71671;SDS011;62112;45.638;11.714;2022-12-18T01:47:44;4.93;;;2.15;;
71671;SDS011;62112;45.638;11.714;2022-12-18T01:53:08;4.70;;;2.20;;
71671;SDS011;62112;45.638;11.714;2022-12-18T01:55:44;4.82;;;2.30;;
71671;SDS011;62112;45.638;11.714;2022-12-18T01:58:17;4.63;;;2.10;;
71671;SDS011;62112;45.638;11.714;2022-12-18T02:00:44;5.43;;;2.30;;
71671;SDS011;62112;45.638;11.714;2022-12-18T02:03:10;5.60;;;2.40;;
71671;SDS011;62112;45.638;11.714;2022-12-18T02:08:29;4.50;;;2.20;;
71671;SDS011;62112;45.638;11.714;2022-12-18T02:11:12;5.13;;;2.20;;
71671;SDS011;62112;45.638;11.714;2022-12-18T02:16:34;4.77;;;2.00;;
71671;SDS011;62112;45.638;11.714;2022-12-18T02:19:35;5.75;;;2.58;;
71671;SDS011;62112;45.638;11.714;2022-12-18T02:22:15;4.90;;;2.30;;
71671;SDS011;62112;45.638;11.714;2022-12-18T02:27:41;4.93;;;2.28;;
71671;SDS011;62112;45.638;11.714;2022-12-18T02:30:10;4.43;;;2.30;;
71671;SDS011;62112;45.638;11.714;2022-12-18T02:32:38;5.50;;;2.30;;
71671;SDS011;62112;45.638;11.714;2022-12-18T02:35:10;4.50;;;2.20;;
71671;SDS011;62112;45.638;11.714;2022-12-18T02:37:42;5.20;;;2.40;;
71671;SDS011;62112;45.638;11.714;2022-12-18T02:40:10;4.55;;;2.20;;
71671;SDS011;62112;45.638;11.714;2022-12-18T02:42:37;5.13;;;2.20;;
71671;SDS011;62112;45.638;11.714;2022-12-18T02:45:03;4.45;;;2.30;;
71671;SDS011;62112;45.638;11.714;2022-12-18T02:47:31;5.28;;;2.15;;
71671;SDS011;62112;45.638;11.714;2022-12-18T02:59:15;4.75;;;2.28;;
71671;SDS011;62112;45.638;11.714;2022-12-18T03:01:30;4.88;;;2.30;;
71671;SDS011;62112;45.638;11.714;2022-12-18T03:04:18;4.70;;;2.20;;
71671;SDS011;62112;45.638;11.714;2022-12-18T03:06:53;4.97;;;2.28;;
71671;SDS011;62112;45.638;11.714;2022-12-18T03:09:24;5.00;;;2.20;;
71671;SDS011;62112;45.638;11.714;2022-12-18T03:12:10;4.82;;;2.25;;
71671;SDS011;62112;45.638;11.714;2022-12-18T03:15:03;4.68;;;2.20;;
71671;SDS011;62112;45.638;11.714;2022-12-18T03:17:42;4.07;;;2.00;;
71671;SDS011;62112;45.638;11.714;2022-12-18T03:20:14;4.53;;;2.13;;
71671;SDS011;62112;45.638;11.714;2022-12-18T03:22:45;4.80;;;2.20;;
71671;SDS011;62112;45.638;11.714;2022-12-18T03:25:15;4.90;;;2.40;;
71671;SDS011;62112;45.638;11.714;2022-12-18T03:27:46;5.55;;;2.05;;
71671;SDS011;62112;45.638;11.714;2022-12-18T03:30:15;4.40;;;2.13;;
71671;SDS011;62112;45.638;11.714;2022-12-18T03:35:23;4.77;;;2.17;;
71671;SDS011;62112;45.638;11.714;2022-12-18T03:37:56;4.60;;;2.38;;
71671;SDS011;62112;45.638;11.714;2022-12-18T03:40:24;5.00;;;2.40;;
71671;SDS011;62112;45.638;11.714;2022-12-18T03:43:06;5.80;;;2.50;;
71671;SDS011;62112;45.638;11.714;2022-12-18T03:45:42;5.22;;;2.25;;
71671;SDS011;62112;45.638;11.714;2022-12-18T03:50:56;4.40;;;2.00;;
71671;SDS011;62112;45.638;11.714;2022-12-18T03:55:50;4.47;;;2.10;;
71671;SDS011;62112;45.638;11.714;2022-12-18T03:58:19;4.73;;;2.33;;
71671;SDS011;62112;45.638;11.714;2022-12-18T04:00:48;4.43;;;1.90;;
71671;SDS011;62112;45.638;11.714;2022-12-18T04:03:16;4.85;;;2.17;;
71671;SDS011;62112;45.638;11.714;2022-12-18T04:05:44;4.85;;;2.20;;
71671;SDS011;62112;45.638;11.714;2022-12-18T04:08:13;5.00;;;2.38;;
71671;SDS011;62112;45.638;11.714;2022-12-18T04:10:39;5.40;;;2.10;;
71671;SDS011;62112;45.638;11.714;2022-12-18T04:13:05;4.50;;;2.13;;
71671;SDS011;62112;45.638;11.714;2022-12-18T04:15:34;4.57;;;1.95;;
71671;SDS011;62112;45.638;11.714;2022-12-18T04:18:01;4.73;;;2.10;;
71671;SDS011;62112;45.638;11.714;2022-12-18T04:20:28;4.32;;;1.92;;
71671;SDS011;62112;45.638;11.714;2022-12-18T04:22:54;5.10;;;2.20;;
71671;SDS011;62112;45.638;11.714;2022-12-18T04:25:20;4.53;;;1.97;;
71671;SDS011;62112;45.638;11.714;2022-12-18T04:27:45;4.93;;;2.22;;
71671;SDS011;62112;45.638;11.714;2022-12-18T04:30:11;5.07;;;2.20;;
71671;SDS011;62112;45.638;11.714;2022-12-18T04:32:37;4.60;;;2.17;;
71671;SDS011;62112;45.638;11.714;2022-12-18T04:35:03;5.03;;;2.15;;
71671;SDS011;62112;45.638;11.714;2022-12-18T04:37:31;4.55;;;2.17;;
71671;SDS011;62112;45.638;11.714;2022-12-18T04:39:57;5.10;;;2.15;;
71671;SDS011;62112;45.638;11.714;2022-12-18T04:42:23;4.50;;;2.00;;
71671;SDS011;62112;45.638;11.714;2022-12-18T04:44:49;5.10;;;2.10;;
71671;SDS011;62112;45.638;11.714;2022-12-18T04:47:14;4.73;;;2.20;;
71671;SDS011;62112;45.638;11.714;2022-12-18T04:49:40;4.63;;;2.03;;
71671;SDS011;62112;45.638;11.714;2022-12-18T04:52:06;4.32;;;1.88;;
71671;SDS011;62112;45.638;11.714;2022-12-18T04:54:32;4.60;;;2.20;;
71671;SDS011;62112;45.638;11.714;2022-12-18T04:56:57;4.28;;;2.08;;
71671;SDS011;62112;45.638;11.714;2022-12-18T04:59:23;4.47;;;2.10;;
71671;SDS011;62112;45.638;11.714;2022-12-18T05:01:49;5.00;;;2.20;;
71671;SDS011;62112;45.638;11.714;2022-12-18T05:04:15;5.35;;;2.15;;
71671;SDS011;62112;45.638;11.714;2022-12-18T05:06:41;4.30;;;2.00;;
71671;SDS011;62112;45.638;11.714;2022-12-18T05:09:07;4.53;;;2.20;;
71671;SDS011;62112;45.638;11.714;2022-12-18T05:11:33;4.80;;;2.20;;
71671;SDS011;62112;45.638;11.714;2022-12-18T05:13:58;4.17;;;1.97;;
71671;SDS011;62112;45.638;11.714;2022-12-18T05:16:24;4.53;;;2.03;;
71671;SDS011;62112;45.638;11.714;2022-12-18T05:18:50;4.35;;;2.05;;
71671;SDS011;62112;45.638;11.714;2022-12-18T05:21:16;4.50;;;1.90;;
71671;SDS011;62112;45.638;11.714;2022-12-18T05:23:42;4.10;;;2.10;;
71671;SDS011;62112;45.638;11.714;2022-12-18T05:26:08;4.50;;;2.10;;
71671;SDS011;62112;45.638;11.714;2022-12-18T05:28:42;4.57;;;2.00;;
71671;SDS011;62112;45.638;11.714;2022-12-18T05:31:09;4.82;;;2.08;;
71671;SDS011;62112;45.638;11.714;2022-12-18T05:33:35;4.35;;;2.00;;
71671;SDS011;62112;45.638;11.714;2022-12-18T05:36:01;4.80;;;2.38;;
71671;SDS011;62112;45.638;11.714;2022-12-18T05:38:30;4.37;;;2.10;;
71671;SDS011;62112;45.638;11.714;2022-12-18T05:40:57;4.10;;;1.92;;
71671;SDS011;62112;45.638;11.714;2022-12-18T05:43:23;4.18;;;2.05;;
71671;SDS011;62112;45.638;11.714;2022-12-18T05:45:51;4.90;;;2.08;;
71671;SDS011;62112;45.638;11.714;2022-12-18T05:48:18;4.53;;;2.15;;
71671;SDS011;62112;45.638;11.714;2022-12-18T05:50:45;5.00;;;2.00;;
71671;SDS011;62112;45.638;11.714;2022-12-18T05:53:13;4.90;;;2.00;;
71671;SDS011;62112;45.638;11.714;2022-12-18T05:55:41;4.75;;;2.30;;
71671;SDS011;62112;45.638;11.714;2022-12-18T05:58:09;4.60;;;2.20;;
71671;SDS011;62112;45.638;11.714;2022-12-18T06:00:39;5.10;;;2.40;;
71671;SDS011;62112;45.638;11.714;2022-12-18T06:03:07;5.10;;;2.30;;
71671;SDS011;62112;45.638;11.714;2022-12-18T06:05:38;5.30;;;2.35;;
71671;SDS011;62112;45.638;11.714;2022-12-18T06:08:05;5.25;;;2.55;;
71671;SDS011;62112;45.638;11.714;2022-12-18T06:10:31;5.18;;;2.50;;
71671;SDS011;62112;45.638;11.714;2022-12-18T06:12:57;5.35;;;2.50;;
71671;SDS011;62112;45.638;11.714;2022-12-18T06:15:23;5.13;;;2.43;;
71671;SDS011;62112;45.638;11.714;2022-12-18T06:17:49;5.18;;;2.60;;
71671;SDS011;62112;45.638;11.714;2022-12-18T06:20:15;4.97;;;2.60;;
71671;SDS011;62112;45.638;11.714;2022-12-18T06:22:41;5.53;;;2.63;;
71671;SDS011;62112;45.638;11.714;2022-12-18T06:25:07;5.20;;;2.50;;
71671;SDS011;62112;45.638;11.714;2022-12-18T06:27:33;5.35;;;2.80;;
71671;SDS011;62112;45.638;11.714;2022-12-18T06:29:59;5.57;;;2.67;;
71671;SDS011;62112;45.638;11.714;2022-12-18T06:32:25;5.32;;;2.40;;
71671;SDS011;62112;45.638;11.714;2022-12-18T06:34:52;5.50;;;2.70;;
71671;SDS011;62112;45.638;11.714;2022-12-18T06:37:19;5.38;;;2.58;;
71671;SDS011;62112;45.638;11.714;2022-12-18T06:39:44;5.45;;;2.78;;
71671;SDS011;62112;45.638;11.714;2022-12-18T06:42:10;5.43;;;2.80;;
71671;SDS011;62112;45.638;11.714;2022-12-18T06:44:36;6.05;;;2.78;;
71671;SDS011;62112;45.638;11.714;2022-12-18T06:47:02;5.15;;;2.50;;
71671;SDS011;62112;45.638;11.714;2022-12-18T06:49:28;4.57;;;2.20;;
71671;SDS011;62112;45.638;11.714;2022-12-18T06:51:54;6.20;;;2.70;;
71671;SDS011;62112;45.638;11.714;2022-12-18T06:54:20;6.10;;;2.90;;
71671;SDS011;62112;45.638;11.714;2022-12-18T06:56:46;4.90;;;2.40;;
71671;SDS011;62112;45.638;11.714;2022-12-18T06:59:12;5.15;;;2.53;;
71671;SDS011;62112;45.638;11.714;2022-12-18T07:01:38;6.05;;;2.92;;
71671;SDS011;62112;45.638;11.714;2022-12-18T07:04:04;5.83;;;2.90;;
71671;SDS011;62112;45.638;11.714;2022-12-18T07:06:30;5.60;;;2.75;;
71671;SDS011;62112;45.638;11.714;2022-12-18T07:08:56;5.60;;;2.70;;
71671;SDS011;62112;45.638;11.714;2022-12-18T07:11:22;6.57;;;2.80;;
71671;SDS011;62112;45.638;11.714;2022-12-18T07:13:48;6.10;;;2.78;;
71671;SDS011;62112;45.638;11.714;2022-12-18T07:16:15;6.35;;;3.00;;
71671;SDS011;62112;45.638;11.714;2022-12-18T07:18:42;6.63;;;3.08;;
71671;SDS011;62112;45.638;11.714;2022-12-18T07:21:09;5.65;;;2.83;;
71671;SDS011;62112;45.638;11.714;2022-12-18T07:23:38;7.73;;;3.00;;
71671;SDS011;62112;45.638;11.714;2022-12-18T07:26:05;8.85;;;3.25;;
71671;SDS011;62112;45.638;11.714;2022-12-18T07:28:33;7.35;;;3.22;;
71671;SDS011;62112;45.638;11.714;2022-12-18T07:31:09;6.60;;;2.83;;
71671;SDS011;62112;45.638;11.714;2022-12-18T07:33:37;6.28;;;2.97;;
71671;SDS011;62112;45.638;11.714;2022-12-18T07:36:03;6.77;;;3.00;;
71671;SDS011;62112;45.638;11.714;2022-12-18T07:38:31;6.78;;;3.22;;
71671;SDS011;62112;45.638;11.714;2022-12-18T07:41:04;6.30;;;3.00;;
71671;SDS011;62112;45.638;11.714;2022-12-18T07:43:32;6.25;;;3.10;;
71671;SDS011;62112;45.638;11.714;2022-12-18T07:45:59;6.28;;;3.20;;
71671;SDS011;62112;45.638;11.714;2022-12-18T07:48:25;6.07;;;2.93;;
71671;SDS011;62112;45.638;11.714;2022-12-18T07:50:51;7.10;;;3.30;;
71671;SDS011;62112;45.638;11.714;2022-12-18T07:53:17;7.88;;;3.25;;
71671;SDS011;62112;45.638;11.714;2022-12-18T07:55:43;6.27;;;3.20;;
71671;SDS011;62112;45.638;11.714;2022-12-18T07:58:09;7.25;;;3.47;;
71671;SDS011;62112;45.638;11.714;2022-12-18T08:00:35;6.20;;;3.10;;
71671;SDS011;62112;45.638;11.714;2022-12-18T08:03:00;6.30;;;3.13;;
71671;SDS011;62112;45.638;11.714;2022-12-18T08:05:27;6.30;;;3.28;;
71671;SDS011;62112;45.638;11.714;2022-12-18T08:07:53;6.72;;;3.45;;
71671;SDS011;62112;45.638;11.714;2022-12-18T08:10:20;6.82;;;3.17;;
71671;SDS011;62112;45.638;11.714;2022-12-18T08:12:50;6.53;;;3.40;;
71671;SDS011;62112;45.638;11.714;2022-12-18T08:15:20;6.73;;;3.63;;
71671;SDS011;62112;45.638;11.714;2022-12-18T08:17:46;6.90;;;3.58;;
71671;SDS011;62112;45.638;11.714;2022-12-18T08:20:12;6.53;;;3.60;;
71671;SDS011;62112;45.638;11.714;2022-12-18T08:22:41;6.32;;;3.30;;
71671;SDS011;62112;45.638;11.714;2022-12-18T08:25:13;7.13;;;3.33;;
71671;SDS011;62112;45.638;11.714;2022-12-18T08:27:39;6.20;;;3.25;;
71671;SDS011;62112;45.638;11.714;2022-12-18T08:30:05;7.32;;;3.50;;
71671;SDS011;62112;45.638;11.714;2022-12-18T08:32:31;7.35;;;3.72;;
71671;SDS011;62112;45.638;11.714;2022-12-18T08:34:58;7.10;;;3.60;;
71671;SDS011;62112;45.638;11.714;2022-12-18T08:37:24;7.35;;;3.70;;
71671;SDS011;62112;45.638;11.714;2022-12-18T08:39:50;7.20;;;3.60;;
71671;SDS011;62112;45.638;11.714;2022-12-18T08:42:16;7.45;;;3.70;;
71671;SDS011;62112;45.638;11.714;2022-12-18T08:45:00;7.20;;;3.53;;
71671;SDS011;62112;45.638;11.714;2022-12-18T08:47:27;8.40;;;3.65;;
71671;SDS011;62112;45.638;11.714;2022-12-18T08:49:52;8.05;;;3.85;;
71671;SDS011;62112;45.638;11.714;2022-12-18T08:52:18;7.30;;;4.00;;
71671;SDS011;62112;45.638;11.714;2022-12-18T08:54:44;9.57;;;3.88;;
71671;SDS011;62112;45.638;11.714;2022-12-18T08:57:10;7.88;;;3.72;;
71671;SDS011;62112;45.638;11.714;2022-12-18T08:59:36;6.67;;;3.80;;
71671;SDS011;62112;45.638;11.714;2022-12-18T09:02:01;7.35;;;3.97;;
71671;SDS011;62112;45.638;11.714;2022-12-18T09:04:30;8.25;;;4.07;;
71671;SDS011;62112;45.638;11.714;2022-12-18T09:06:57;7.07;;;3.90;;
71671;SDS011;62112;45.638;11.714;2022-12-18T09:09:23;7.15;;;3.78;;
71671;SDS011;62112;45.638;11.714;2022-12-18T09:11:53;6.63;;;3.90;;
71671;SDS011;62112;45.638;11.714;2022-12-18T09:14:25;7.38;;;4.07;;
71671;SDS011;62112;45.638;11.714;2022-12-18T09:16:50;7.23;;;4.10;;
71671;SDS011;62112;45.638;11.714;2022-12-18T09:19:16;7.13;;;4.10;;
71671;SDS011;62112;45.638;11.714;2022-12-18T09:21:43;7.75;;;4.13;;
71671;SDS011;62112;45.638;11.714;2022-12-18T09:24:10;8.50;;;4.43;;
71671;SDS011;62112;45.638;11.714;2022-12-18T09:26:38;8.15;;;4.38;;
71671;SDS011;62112;45.638;11.714;2022-12-18T09:29:04;7.18;;;4.05;;
71671;SDS011;62112;45.638;11.714;2022-12-18T09:31:32;8.17;;;4.30;;
71671;SDS011;62112;45.638;11.714;2022-12-18T09:33:58;7.53;;;4.50;;
71671;SDS011;62112;45.638;11.714;2022-12-18T09:36:24;7.95;;;4.72;;
71671;SDS011;62112;45.638;11.714;2022-12-18T09:38:50;9.63;;;5.20;;
71671;SDS011;62112;45.638;11.714;2022-12-18T09:44:09;8.27;;;4.95;;
71671;SDS011;62112;45.638;11.714;2022-12-18T09:47:02;10.38;;;5.60;;
71671;SDS011;62112;45.638;11.714;2022-12-18T09:49:58;9.30;;;5.55;;
71671;SDS011;62112;45.638;11.714;2022-12-18T09:52:41;8.38;;;5.68;;
71671;SDS011;62112;45.638;11.714;2022-12-18T09:55:14;9.90;;;6.13;;
71671;SDS011;62112;45.638;11.714;2022-12-18T09:57:56;10.18;;;5.68;;
71671;SDS011;62112;45.638;11.714;2022-12-18T10:00:27;8.95;;;5.85;;
71671;SDS011;62112;45.638;11.714;2022-12-18T10:02:57;11.88;;;5.82;;
71671;SDS011;62112;45.638;11.714;2022-12-18T10:05:34;8.68;;;5.70;;
71671;SDS011;62112;45.638;11.714;2022-12-18T10:08:10;7.90;;;5.40;;
71671;SDS011;62112;45.638;11.714;2022-12-18T10:10:46;8.73;;;5.60;;
71671;SDS011;62112;45.638;11.714;2022-12-18T10:16:03;8.52;;;5.40;;
71671;SDS011;62112;45.638;11.714;2022-12-18T10:21:17;7.97;;;5.30;;
71671;SDS011;62112;45.638;11.714;2022-12-18T10:23:52;9.23;;;5.40;;
71671;SDS011;62112;45.638;11.714;2022-12-18T10:26:41;8.40;;;5.30;;
71671;SDS011;62112;45.638;11.714;2022-12-18T10:29:11;8.43;;;5.40;;
71671;SDS011;62112;45.638;11.714;2022-12-18T10:31:38;8.50;;;5.32;;
71671;SDS011;62112;45.638;11.714;2022-12-18T10:34:08;11.20;;;5.23;;
71671;SDS011;62112;45.638;11.714;2022-12-18T10:36:37;8.27;;;5.35;;
71671;SDS011;62112;45.638;11.714;2022-12-18T10:39:18;9.38;;;5.40;;
71671;SDS011;62112;45.638;11.714;2022-12-18T10:41:47;8.25;;;5.22;;
71671;SDS011;62112;45.638;11.714;2022-12-18T10:46:51;8.37;;;5.13;;
71671;SDS011;62112;45.638;11.714;2022-12-18T10:49:27;7.90;;;5.20;;
71671;SDS011;62112;45.638;11.714;2022-12-18T10:52:18;8.70;;;5.45;;
71671;SDS011;62112;45.638;11.714;2022-12-18T10:54:48;8.32;;;5.10;;
71671;SDS011;62112;45.638;11.714;2022-12-18T10:59:59;8.10;;;5.17;;
71671;SDS011;62112;45.638;11.714;2022-12-18T11:02:45;8.73;;;5.05;;
71671;SDS011;62112;45.638;11.714;2022-12-18T11:05:23;8.23;;;5.15;;
71671;SDS011;62112;45.638;11.714;2022-12-18T11:07:51;8.25;;;4.78;;
71671;SDS011;62112;45.638;11.714;2022-12-18T11:10:20;9.30;;;4.90;;
71671;SDS011;62112;45.638;11.714;2022-12-18T11:12:47;7.78;;;4.75;;
71671;SDS011;62112;45.638;11.714;2022-12-18T11:15:19;10.68;;;5.97;;
71671;SDS011;62112;45.638;11.714;2022-12-18T11:17:49;10.48;;;6.57;;
71671;SDS011;62112;45.638;11.714;2022-12-18T11:20:21;11.30;;;7.30;;
71671;SDS011;62112;45.638;11.714;2022-12-18T11:22:56;12.23;;;7.80;;
71671;SDS011;62112;45.638;11.714;2022-12-18T11:25:24;12.50;;;8.15;;
71671;SDS011;62112;45.638;11.714;2022-12-18T11:27:52;12.07;;;7.90;;
71671;SDS011;62112;45.638;11.714;2022-12-18T11:32:56;13.55;;;8.80;;
71671;SDS011;62112;45.638;11.714;2022-12-18T11:38:17;13.57;;;9.30;;
71671;SDS011;62112;45.638;11.714;2022-12-18T11:40:53;13.40;;;8.82;;
71671;SDS011;62112;45.638;11.714;2022-12-18T11:43:31;14.57;;;9.13;;
71671;SDS011;62112;45.638;11.714;2022-12-18T11:46:16;12.70;;;9.13;;
71671;SDS011;62112;45.638;11.714;2022-12-18T11:49:12;13.50;;;8.67;;
71671;SDS011;62112;45.638;11.714;2022-12-18T11:54:18;13.68;;;9.05;;
71671;SDS011;62112;45.638;11.714;2022-12-18T12:02:11;14.65;;;8.60;;
71671;SDS011;62112;45.638;11.714;2022-12-18T12:15:51;12.55;;;8.32;;
71671;SDS011;62112;45.638;11.714;2022-12-18T12:24:09;12.02;;;8.20;;
71671;SDS011;62112;45.638;11.714;2022-12-18T12:29:37;11.63;;;7.78;;
71671;SDS011;62112;45.638;11.714;2022-12-18T12:37:58;12.00;;;7.80;;
71671;SDS011;62112;45.638;11.714;2022-12-18T12:40:34;11.20;;;7.00;;
71671;SDS011;62112;45.638;11.714;2022-12-18T12:43:14;11.48;;;7.60;;
71671;SDS011;62112;45.638;11.714;2022-12-18T12:45:58;11.15;;;7.25;;
71671;SDS011;62112;45.638;11.714;2022-12-18T12:51:01;10.90;;;7.10;;
71671;SDS011;62112;45.638;11.714;2022-12-18T12:53:35;10.83;;;6.80;;
71671;SDS011;62112;45.638;11.714;2022-12-18T12:56:03;10.20;;;6.65;;
71671;SDS011;62112;45.638;11.714;2022-12-18T13:01:25;10.38;;;6.43;;
71671;SDS011;62112;45.638;11.714;2022-12-18T13:04:13;10.93;;;6.90;;
71671;SDS011;62112;45.638;11.714;2022-12-18T13:10:22;10.95;;;6.80;;
71671;SDS011;62112;45.638;11.714;2022-12-18T13:12:54;10.32;;;6.38;;
71671;SDS011;62112;45.638;11.714;2022-12-18T13:15:40;10.27;;;6.57;;
71671;SDS011;62112;45.638;11.714;2022-12-18T13:18:23;9.75;;;6.75;;
71671;SDS011;62112;45.638;11.714;2022-12-18T13:20:51;10.53;;;6.10;;
71671;SDS011;62112;45.638;11.714;2022-12-18T13:23:30;10.00;;;6.30;;
71671;SDS011;62112;45.638;11.714;2022-12-18T13:36:38;9.75;;;6.00;;
71671;SDS011;62112;45.638;11.714;2022-12-18T13:41:52;8.75;;;5.75;;
71671;SDS011;62112;45.638;11.714;2022-12-18T13:44:32;9.50;;;5.70;;
71671;SDS011;62112;45.638;11.714;2022-12-18T13:47:05;11.60;;;6.18;;
71671;SDS011;62112;45.638;11.714;2022-12-18T13:49:57;9.77;;;6.10;;
71671;SDS011;62112;45.638;11.714;2022-12-18T13:52:27;10.27;;;5.70;;
71671;SDS011;62112;45.638;11.714;2022-12-18T13:54:58;8.50;;;5.65;;
71671;SDS011;62112;45.638;11.714;2022-12-18T13:57:28;9.20;;;5.80;;
71671;SDS011;62112;45.638;11.714;2022-12-18T14:02:47;10.30;;;5.68;;
71671;SDS011;62112;45.638;11.714;2022-12-18T14:05:27;8.82;;;5.63;;
71671;SDS011;62112;45.638;11.714;2022-12-18T14:07:55;8.55;;;5.30;;
71671;SDS011;62112;45.638;11.714;2022-12-18T14:10:26;8.60;;;5.33;;
71671;SDS011;62112;45.638;11.714;2022-12-18T14:12:52;8.15;;;5.10;;
71671;SDS011;62112;45.638;11.714;2022-12-18T14:17:58;8.57;;;5.35;;
71671;SDS011;62112;45.638;11.714;2022-12-18T14:20:39;9.05;;;5.55;;
71671;SDS011;62112;45.638;11.714;2022-12-18T14:25:55;13.15;;;6.28;;
71671;SDS011;62112;45.638;11.714;2022-12-18T14:28:20;13.68;;;5.20;;
71671;SDS011;62112;45.638;11.714;2022-12-18T14:30:51;14.93;;;5.47;;
71671;SDS011;62112;45.638;11.714;2022-12-18T14:33:20;14.38;;;5.97;;
71671;SDS011;62112;45.638;11.714;2022-12-18T14:35:55;13.70;;;5.03;;
71671;SDS011;62112;45.638;11.714;2022-12-18T14:38:34;15.90;;;5.85;;
71671;SDS011;62112;45.638;11.714;2022-12-18T14:41:02;14.98;;;6.00;;
71671;SDS011;62112;45.638;11.714;2022-12-18T14:43:32;19.02;;;6.18;;
71671;SDS011;62112;45.638;11.714;2022-12-18T14:45:59;18.98;;;6.28;;
71671;SDS011;62112;45.638;11.714;2022-12-18T14:51:02;18.55;;;5.82;;
71671;SDS011;62112;45.638;11.714;2022-12-18T14:56:01;20.92;;;6.30;;
71671;SDS011;62112;45.638;11.714;2022-12-18T14:58:29;16.33;;;6.03;;
71671;SDS011;62112;45.638;11.714;2022-12-18T15:00:54;16.37;;;7.20;;
71671;SDS011;62112;45.638;11.714;2022-12-18T15:03:20;17.98;;;7.15;;
71671;SDS011;62112;45.638;11.714;2022-12-18T15:05:47;21.33;;;7.28;;
71671;SDS011;62112;45.638;11.714;2022-12-18T15:11:01;15.77;;;6.55;;
71671;SDS011;62112;45.638;11.714;2022-12-18T15:13:28;16.23;;;6.45;;
71671;SDS011;62112;45.638;11.714;2022-12-18T15:15:54;18.77;;;6.38;;
71671;SDS011;62112;45.638;11.714;2022-12-18T15:18:27;19.23;;;7.75;;
71671;SDS011;62112;45.638;11.714;2022-12-18T15:21:06;15.43;;;6.63;;
71671;SDS011;62112;45.638;11.714;2022-12-18T15:26:12;18.48;;;7.20;;
71671;SDS011;62112;45.638;11.714;2022-12-18T15:31:29;17.23;;;6.88;;
71671;SDS011;62112;45.638;11.714;2022-12-18T15:36:33;16.60;;;7.32;;
71671;SDS011;62112;45.638;11.714;2022-12-18T15:39:02;14.82;;;6.70;;
71671;SDS011;62112;45.638;11.714;2022-12-18T15:41:30;18.13;;;7.13;;
71671;SDS011;62112;45.638;11.714;2022-12-18T15:43:58;17.45;;;7.30;;
71671;SDS011;62112;45.638;11.714;2022-12-18T15:46:24;16.50;;;6.87;;
71671;SDS011;62112;45.638;11.714;2022-12-18T15:48:55;16.20;;;7.13;;
71671;SDS011;62112;45.638;11.714;2022-12-18T15:51:28;14.95;;;6.57;;
71671;SDS011;62112;45.638;11.714;2022-12-18T15:53:56;16.13;;;7.03;;
71671;SDS011;62112;45.638;11.714;2022-12-18T15:56:25;14.32;;;6.78;;
71671;SDS011;62112;45.638;11.714;2022-12-18T15:59:10;12.80;;;7.17;;
71671;SDS011;62112;45.638;11.714;2022-12-18T16:01:38;15.77;;;7.05;;
71671;SDS011;62112;45.638;11.714;2022-12-18T16:04:04;15.55;;;7.20;;
71671;SDS011;62112;45.638;11.714;2022-12-18T16:06:30;13.68;;;6.63;;
71671;SDS011;62112;45.638;11.714;2022-12-18T16:08:56;13.77;;;6.43;;
71671;SDS011;62112;45.638;11.714;2022-12-18T16:11:23;15.48;;;6.45;;
71671;SDS011;62112;45.638;11.714;2022-12-18T16:14:12;14.43;;;6.57;;
71671;SDS011;62112;45.638;11.714;2022-12-18T16:16:55;13.98;;;6.85;;
71671;SDS011;62112;45.638;11.714;2022-12-18T16:19:22;14.87;;;6.60;;
71671;SDS011;62112;45.638;11.714;2022-12-18T16:21:48;12.27;;;5.88;;
71671;SDS011;62112;45.638;11.714;2022-12-18T16:24:19;13.73;;;6.75;;
71671;SDS011;62112;45.638;11.714;2022-12-18T16:26:50;13.00;;;6.38;;
71671;SDS011;62112;45.638;11.714;2022-12-18T16:29:17;12.68;;;6.70;;
71671;SDS011;62112;45.638;11.714;2022-12-18T16:31:43;14.37;;;6.43;;
71671;SDS011;62112;45.638;11.714;2022-12-18T16:34:18;14.63;;;6.63;;
71671;SDS011;62112;45.638;11.714;2022-12-18T16:37:05;12.60;;;6.35;;
71671;SDS011;62112;45.638;11.714;2022-12-18T16:39:33;12.18;;;6.80;;
71671;SDS011;62112;45.638;11.714;2022-12-18T16:42:00;13.85;;;6.63;;
71671;SDS011;62112;45.638;11.714;2022-12-18T16:44:27;12.83;;;6.30;;
71671;SDS011;62112;45.638;11.714;2022-12-18T16:46:54;12.27;;;6.18;;
71671;SDS011;62112;45.638;11.714;2022-12-18T16:49:26;11.60;;;6.55;;
71671;SDS011;62112;45.638;11.714;2022-12-18T16:51:53;12.70;;;6.30;;
71671;SDS011;62112;45.638;11.714;2022-12-18T16:54:19;14.83;;;6.50;;